sensor_id;sensor_type;location;lat;lon;timestamp;temperature;humidity
60027;DHT22;45891;53.006;6.512;2023-05-07T00:02:00;13.20;99.90
60027;DHT22;45891;53.006;6.512;2023-05-07T00:04:26;13.20;99.90
60027;DHT22;45891;53.006;6.512;2023-05-07T00:06:54;13.20;99.90
60027;DHT22;45891;53.006;6.512;2023-05-07T00:09:21;13.10;99.90
60027;DHT22;45891;53.006;6.512;2023-05-07T00:11:47;13.10;99.90
60027;DHT22;45891;53.006;6.512;2023-05-07T00:14:13;13.10;99.90
60027;DHT22;45891;53.006;6.512;2023-05-07T00:16:39;13.10;99.90
60027;DHT22;45891;53.006;6.512;2023-05-07T00:19:05;13.10;99.90
60027;DHT22;45891;53.006;6.512;2023-05-07T00:21:31;13.00;99.90
60027;DHT22;45891;53.006;6.512;2023-05-07T00:23:57;13.00;99.90
60027;DHT22;45891;53.006;6.512;2023-05-07T00:26:23;13.00;99.90
60027;DHT22;45891;53.006;6.512;2023-05-07T00:28:49;13.00;99.90
60027;DHT22;45891;53.006;6.512;2023-05-07T00:31:15;13.00;99.90
60027;DHT22;45891;53.006;6.512;2023-05-07T00:33:42;13.00;99.90
60027;DHT22;45891;53.006;6.512;2023-05-07T00:36:08;12.90;99.90
60027;DHT22;45891;53.006;6.512;2023-05-07T00:38:34;12.90;99.90
60027;DHT22;45891;53.006;6.512;2023-05-07T00:41:00;12.90;99.90
60027;DHT22;45891;53.006;6.512;2023-05-07T00:43:28;12.90;99.90
60027;DHT22;45891;53.006;6.512;2023-05-07T00:45:54;12.80;99.90
60027;DHT22;45891;53.006;6.512;2023-05-07T00:48:21;12.80;99.90
60027;DHT22;45891;53.006;6.512;2023-05-07T00:50:47;12.80;99.90
60027;DHT22;45891;53.006;6.512;2023-05-07T00:53:14;12.80;99.90
60027;DHT22;45891;53.006;6.512;2023-05-07T00:55:40;12.80;99.90
60027;DHT22;45891;53.006;6.512;2023-05-07T00:58:06;12.80;99.90
60027;DHT22;45891;53.006;6.512;2023-05-07T01:00:32;12.70;99.90
60027;DHT22;45891;53.006;6.512;2023-05-07T01:02:58;12.70;99.90
60027;DHT22;45891;53.006;6.512;2023-05-07T01:05:25;12.70;99.90
60027;DHT22;45891;53.006;6.512;2023-05-07T01:07:53;12.60;99.90
60027;DHT22;45891;53.006;6.512;2023-05-07T01:10:21;12.70;99.90
60027;DHT22;45891;53.006;6.512;2023-05-07T01:12:48;12.60;99.90
60027;DHT22;45891;53.006;6.512;2023-05-07T01:15:15;12.60;99.90
60027;DHT22;45891;53.006;6.512;2023-05-07T01:17:43;12.50;99.90
60027;DHT22;45891;53.006;6.512;2023-05-07T01:20:10;12.50;99.90
60027;DHT22;45891;53.006;6.512;2023-05-07T01:22:37;12.50;99.90
60027;DHT22;45891;53.006;6.512;2023-05-07T01:25:05;12.50;99.90
60027;DHT22;45891;53.006;6.512;2023-05-07T01:27:31;12.50;99.90
60027;DHT22;45891;53.006;6.512;2023-05-07T01:29:59;12.40;99.90
60027;DHT22;45891;53.006;6.512;2023-05-07T01:35:05;12.30;99.90
60027;DHT22;45891;53.006;6.512;2023-05-07T01:37:33;12.30;99.90
60027;DHT22;45891;53.006;6.512;2023-05-07T01:40:01;12.30;99.90
60027;DHT22;45891;53.006;6.512;2023-05-07T01:42:29;12.30;99.90
60027;DHT22;45891;53.006;6.512;2023-05-07T01:44:55;12.30;99.90
60027;DHT22;45891;53.006;6.512;2023-05-07T01:47:22;12.30;99.90
60027;DHT22;45891;53.006;6.512;2023-05-07T01:49:48;12.30;99.90
60027;DHT22;45891;53.006;6.512;2023-05-07T01:52:15;12.20;99.90
60027;DHT22;45891;53.006;6.512;2023-05-07T01:54:41;12.20;99.90
60027;DHT22;45891;53.006;6.512;2023-05-07T01:57:08;12.20;99.90
60027;DHT22;45891;53.006;6.512;2023-05-07T01:59:34;12.10;99.90
60027;DHT22;45891;53.006;6.512;2023-05-07T02:02:00;12.10;99.90
60027;DHT22;45891;53.006;6.512;2023-05-07T02:04:26;12.10;99.90
60027;DHT22;45891;53.006;6.512;2023-05-07T02:06:53;12.00;99.90
60027;DHT22;45891;53.006;6.512;2023-05-07T02:09:19;12.00;99.90
60027;DHT22;45891;53.006;6.512;2023-05-07T02:11:45;12.00;99.90
60027;DHT22;45891;53.006;6.512;2023-05-07T02:14:11;11.90;99.90
60027;DHT22;45891;53.006;6.512;2023-05-07T02:16:37;11.90;99.90
60027;DHT22;45891;53.006;6.512;2023-05-07T02:19:03;11.90;99.90
60027;DHT22;45891;53.006;6.512;2023-05-07T02:21:29;11.90;99.90
60027;DHT22;45891;53.006;6.512;2023-05-07T02:23:55;11.80;99.90
60027;DHT22;45891;53.006;6.512;2023-05-07T02:26:22;11.80;99.90
60027;DHT22;45891;53.006;6.512;2023-05-07T02:28:48;11.80;99.90
60027;DHT22;45891;53.006;6.512;2023-05-07T02:31:14;11.80;99.90
60027;DHT22;45891;53.006;6.512;2023-05-07T02:33:40;11.80;99.90
60027;DHT22;45891;53.006;6.512;2023-05-07T02:36:10;11.80;99.90
60027;DHT22;45891;53.006;6.512;2023-05-07T02:38:37;11.80;99.90
60027;DHT22;45891;53.006;6.512;2023-05-07T02:41:03;11.80;99.90
60027;DHT22;45891;53.006;6.512;2023-05-07T02:43:29;11.70;99.90
60027;DHT22;45891;53.006;6.512;2023-05-07T02:46:06;11.70;99.90
60027;DHT22;45891;53.006;6.512;2023-05-07T02:48:33;11.70;99.90
60027;DHT22;45891;53.006;6.512;2023-05-07T02:51:00;11.70;99.90
60027;DHT22;45891;53.006;6.512;2023-05-07T02:53:26;11.70;99.90
60027;DHT22;45891;53.006;6.512;2023-05-07T02:55:57;11.60;99.90
60027;DHT22;45891;53.006;6.512;2023-05-07T02:58:23;11.60;99.90
60027;DHT22;45891;53.006;6.512;2023-05-07T03:00:49;11.60;99.90
60027;DHT22;45891;53.006;6.512;2023-05-07T03:03:16;11.50;99.90
60027;DHT22;45891;53.006;6.512;2023-05-07T03:05:42;11.50;99.90
60027;DHT22;45891;53.006;6.512;2023-05-07T03:08:09;11.50;99.90
60027;DHT22;45891;53.006;6.512;2023-05-07T03:10:36;11.50;99.90
60027;DHT22;45891;53.006;6.512;2023-05-07T03:13:03;11.50;99.90
60027;DHT22;45891;53.006;6.512;2023-05-07T03:15:29;11.50;99.90
60027;DHT22;45891;53.006;6.512;2023-05-07T03:17:55;11.50;99.90
60027;DHT22;45891;53.006;6.512;2023-05-07T03:20:21;11.50;99.90
60027;DHT22;45891;53.006;6.512;2023-05-07T03:22:48;11.50;99.90
60027;DHT22;45891;53.006;6.512;2023-05-07T03:25:14;11.50;99.90
60027;DHT22;45891;53.006;6.512;2023-05-07T03:27:40;11.40;99.90
60027;DHT22;45891;53.006;6.512;2023-05-07T03:30:10;11.40;99.90
60027;DHT22;45891;53.006;6.512;2023-05-07T03:32:37;11.40;99.90
60027;DHT22;45891;53.006;6.512;2023-05-07T03:35:03;11.40;99.90
60027;DHT22;45891;53.006;6.512;2023-05-07T03:37:29;11.40;99.90
60027;DHT22;45891;53.006;6.512;2023-05-07T03:39:56;11.40;99.90
60027;DHT22;45891;53.006;6.512;2023-05-07T03:42:22;11.40;99.90
60027;DHT22;45891;53.006;6.512;2023-05-07T03:44:48;11.40;99.90
60027;DHT22;45891;53.006;6.512;2023-05-07T03:47:14;11.40;99.90
60027;DHT22;45891;53.006;6.512;2023-05-07T03:49:40;11.40;99.90
60027;DHT22;45891;53.006;6.512;2023-05-07T03:52:06;11.30;99.90
60027;DHT22;45891;53.006;6.512;2023-05-07T03:54:32;11.40;99.90
60027;DHT22;45891;53.006;6.512;2023-05-07T03:56:59;11.40;99.90
60027;DHT22;45891;53.006;6.512;2023-05-07T03:59:25;11.40;99.90
60027;DHT22;45891;53.006;6.512;2023-05-07T04:01:51;11.40;99.90
60027;DHT22;45891;53.006;6.512;2023-05-07T04:04:17;11.40;99.90
60027;DHT22;45891;53.006;6.512;2023-05-07T04:06:43;11.40;99.90
60027;DHT22;45891;53.006;6.512;2023-05-07T04:09:09;11.40;99.90
60027;DHT22;45891;53.006;6.512;2023-05-07T04:11:35;11.30;99.90
60027;DHT22;45891;53.006;6.512;2023-05-07T04:14:01;11.30;99.90
60027;DHT22;45891;53.006;6.512;2023-05-07T04:16:28;11.40;99.90
60027;DHT22;45891;53.006;6.512;2023-05-07T04:18:54;11.30;99.90
60027;DHT22;45891;53.006;6.512;2023-05-07T04:21:20;11.30;99.90
60027;DHT22;45891;53.006;6.512;2023-05-07T04:23:47;11.30;99.90
60027;DHT22;45891;53.006;6.512;2023-05-07T04:26:14;11.30;99.90
60027;DHT22;45891;53.006;6.512;2023-05-07T04:28:41;11.20;99.90
60027;DHT22;45891;53.006;6.512;2023-05-07T04:31:07;11.20;99.90
60027;DHT22;45891;53.006;6.512;2023-05-07T04:33:34;11.20;99.90
60027;DHT22;45891;53.006;6.512;2023-05-07T04:36:03;11.20;99.90
60027;DHT22;45891;53.006;6.512;2023-05-07T04:38:30;11.20;99.90
60027;DHT22;45891;53.006;6.512;2023-05-07T04:41:02;11.20;99.90
60027;DHT22;45891;53.006;6.512;2023-05-07T04:43:28;11.20;99.90
60027;DHT22;45891;53.006;6.512;2023-05-07T04:45:54;11.20;99.90
60027;DHT22;45891;53.006;6.512;2023-05-07T04:48:20;11.30;99.90
60027;DHT22;45891;53.006;6.512;2023-05-07T04:50:48;11.20;99.90
60027;DHT22;45891;53.006;6.512;2023-05-07T04:53:14;11.20;99.90
60027;DHT22;45891;53.006;6.512;2023-05-07T04:55:40;11.20;99.90
60027;DHT22;45891;53.006;6.512;2023-05-07T04:58:07;11.20;99.90
60027;DHT22;45891;53.006;6.512;2023-05-07T05:00:33;11.20;99.90
60027;DHT22;45891;53.006;6.512;2023-05-07T05:02:59;11.20;99.90
60027;DHT22;45891;53.006;6.512;2023-05-07T05:05:25;11.30;99.90
60027;DHT22;45891;53.006;6.512;2023-05-07T05:07:51;11.30;99.90
60027;DHT22;45891;53.006;6.512;2023-05-07T05:10:22;11.30;99.90
60027;DHT22;45891;53.006;6.512;2023-05-07T05:12:48;11.30;99.90
60027;DHT22;45891;53.006;6.512;2023-05-07T05:15:14;11.30;99.90
60027;DHT22;45891;53.006;6.512;2023-05-07T05:17:40;11.40;99.90
60027;DHT22;45891;53.006;6.512;2023-05-07T05:20:07;11.40;99.90
60027;DHT22;45891;53.006;6.512;2023-05-07T05:22:33;11.50;99.90
60027;DHT22;45891;53.006;6.512;2023-05-07T05:24:59;11.40;99.90
60027;DHT22;45891;53.006;6.512;2023-05-07T05:27:26;11.40;99.90
60027;DHT22;45891;53.006;6.512;2023-05-07T05:29:52;11.40;99.90
60027;DHT22;45891;53.006;6.512;2023-05-07T05:32:18;11.40;99.90
60027;DHT22;45891;53.006;6.512;2023-05-07T05:34:44;11.30;99.90
60027;DHT22;45891;53.006;6.512;2023-05-07T05:37:11;11.30;99.90
60027;DHT22;45891;53.006;6.512;2023-05-07T05:39:37;11.30;99.90
60027;DHT22;45891;53.006;6.512;2023-05-07T05:42:03;11.30;99.90
60027;DHT22;45891;53.006;6.512;2023-05-07T05:44:29;11.40;99.90
60027;DHT22;45891;53.006;6.512;2023-05-07T05:46:56;11.40;99.90
60027;DHT22;45891;53.006;6.512;2023-05-07T05:49:23;11.40;99.90
60027;DHT22;45891;53.006;6.512;2023-05-07T05:51:49;11.40;99.90
60027;DHT22;45891;53.006;6.512;2023-05-07T05:54:15;11.50;99.90
60027;DHT22;45891;53.006;6.512;2023-05-07T05:56:42;11.50;99.90
60027;DHT22;45891;53.006;6.512;2023-05-07T05:59:08;11.60;99.90
60027;DHT22;45891;53.006;6.512;2023-05-07T06:01:34;11.60;99.90
60027;DHT22;45891;53.006;6.512;2023-05-07T06:04:00;11.60;99.90
60027;DHT22;45891;53.006;6.512;2023-05-07T06:06:26;11.60;99.90
60027;DHT22;45891;53.006;6.512;2023-05-07T06:08:53;11.60;99.90
60027;DHT22;45891;53.006;6.512;2023-05-07T06:11:19;11.60;99.90
60027;DHT22;45891;53.006;6.512;2023-05-07T06:13:45;11.60;99.90
60027;DHT22;45891;53.006;6.512;2023-05-07T06:16:12;11.60;99.90
60027;DHT22;45891;53.006;6.512;2023-05-07T06:18:38;11.70;99.90
60027;DHT22;45891;53.006;6.512;2023-05-07T06:21:04;11.60;99.90
60027;DHT22;45891;53.006;6.512;2023-05-07T06:23:30;11.70;99.90
60027;DHT22;45891;53.006;6.512;2023-05-07T06:25:56;11.70;99.90
60027;DHT22;45891;53.006;6.512;2023-05-07T06:28:22;11.70;99.90
60027;DHT22;45891;53.006;6.512;2023-05-07T06:30:48;11.80;99.90
60027;DHT22;45891;53.006;6.512;2023-05-07T06:33:16;11.80;99.90
60027;DHT22;45891;53.006;6.512;2023-05-07T06:35:42;11.80;99.90
60027;DHT22;45891;53.006;6.512;2023-05-07T06:38:08;11.80;99.90
60027;DHT22;45891;53.006;6.512;2023-05-07T06:40:34;11.80;99.90
60027;DHT22;45891;53.006;6.512;2023-05-07T06:43:00;11.90;99.90
60027;DHT22;45891;53.006;6.512;2023-05-07T06:45:26;11.90;99.90
60027;DHT22;45891;53.006;6.512;2023-05-07T06:47:52;12.00;99.90
60027;DHT22;45891;53.006;6.512;2023-05-07T06:50:18;12.00;99.90
60027;DHT22;45891;53.006;6.512;2023-05-07T06:52:44;12.10;99.90
60027;DHT22;45891;53.006;6.512;2023-05-07T06:55:10;12.10;99.90
60027;DHT22;45891;53.006;6.512;2023-05-07T06:57:37;12.20;99.90
60027;DHT22;45891;53.006;6.512;2023-05-07T07:00:04;12.20;99.90
60027;DHT22;45891;53.006;6.512;2023-05-07T07:02:32;12.30;99.90
60027;DHT22;45891;53.006;6.512;2023-05-07T07:04:58;12.30;99.90
60027;DHT22;45891;53.006;6.512;2023-05-07T07:07:24;12.40;99.90
60027;DHT22;45891;53.006;6.512;2023-05-07T07:09:51;12.40;99.90
60027;DHT22;45891;53.006;6.512;2023-05-07T07:12:17;12.50;99.90
60027;DHT22;45891;53.006;6.512;2023-05-07T07:14:43;12.40;99.90
60027;DHT22;45891;53.006;6.512;2023-05-07T07:17:09;12.40;99.90
60027;DHT22;45891;53.006;6.512;2023-05-07T07:19:35;12.50;99.90
60027;DHT22;45891;53.006;6.512;2023-05-07T07:22:01;12.40;99.90
60027;DHT22;45891;53.006;6.512;2023-05-07T07:24:27;12.40;99.90
60027;DHT22;45891;53.006;6.512;2023-05-07T07:26:53;12.50;99.90
60027;DHT22;45891;53.006;6.512;2023-05-07T07:29:21;12.60;99.90
60027;DHT22;45891;53.006;6.512;2023-05-07T07:31:48;12.60;99.90
60027;DHT22;45891;53.006;6.512;2023-05-07T07:34:15;12.60;99.90
60027;DHT22;45891;53.006;6.512;2023-05-07T07:36:41;12.50;99.90
60027;DHT22;45891;53.006;6.512;2023-05-07T07:39:07;12.50;99.90
60027;DHT22;45891;53.006;6.512;2023-05-07T07:41:34;12.60;99.90
60027;DHT22;45891;53.006;6.512;2023-05-07T07:44:00;12.50;99.90
60027;DHT22;45891;53.006;6.512;2023-05-07T07:46:26;12.60;99.90
60027;DHT22;45891;53.006;6.512;2023-05-07T07:48:52;12.70;99.90
60027;DHT22;45891;53.006;6.512;2023-05-07T07:51:21;12.70;99.90
60027;DHT22;45891;53.006;6.512;2023-05-07T07:53:48;12.70;99.90
60027;DHT22;45891;53.006;6.512;2023-05-07T07:56:14;12.80;99.90
60027;DHT22;45891;53.006;6.512;2023-05-07T07:58:40;12.90;99.90
60027;DHT22;45891;53.006;6.512;2023-05-07T08:01:08;12.90;99.90
60027;DHT22;45891;53.006;6.512;2023-05-07T08:03:34;13.10;99.90
60027;DHT22;45891;53.006;6.512;2023-05-07T08:06:01;13.30;99.90
60027;DHT22;45891;53.006;6.512;2023-05-07T08:08:27;13.40;99.90
60027;DHT22;45891;53.006;6.512;2023-05-07T08:10:53;13.50;99.90
60027;DHT22;45891;53.006;6.512;2023-05-07T08:13:19;13.70;99.90
60027;DHT22;45891;53.006;6.512;2023-05-07T08:15:45;13.80;99.90
60027;DHT22;45891;53.006;6.512;2023-05-07T08:18:11;13.90;99.90
60027;DHT22;45891;53.006;6.512;2023-05-07T08:20:37;14.10;99.90
60027;DHT22;45891;53.006;6.512;2023-05-07T08:23:05;14.20;99.90
60027;DHT22;45891;53.006;6.512;2023-05-07T08:25:34;14.40;99.90
60027;DHT22;45891;53.006;6.512;2023-05-07T08:28:01;14.60;99.90
60027;DHT22;45891;53.006;6.512;2023-05-07T08:30:27;14.70;99.90
60027;DHT22;45891;53.006;6.512;2023-05-07T08:32:53;14.70;99.90
60027;DHT22;45891;53.006;6.512;2023-05-07T08:35:19;14.90;99.90
60027;DHT22;45891;53.006;6.512;2023-05-07T08:37:46;14.80;99.90
60027;DHT22;45891;53.006;6.512;2023-05-07T08:40:12;14.80;99.90
60027;DHT22;45891;53.006;6.512;2023-05-07T08:42:40;14.60;99.90
60027;DHT22;45891;53.006;6.512;2023-05-07T08:45:11;14.60;99.90
60027;DHT22;45891;53.006;6.512;2023-05-07T08:47:58;14.80;99.90
60027;DHT22;45891;53.006;6.512;2023-05-07T08:50:26;14.90;99.90
60027;DHT22;45891;53.006;6.512;2023-05-07T08:52:52;14.90;99.90
60027;DHT22;45891;53.006;6.512;2023-05-07T08:55:18;15.40;99.90
60027;DHT22;45891;53.006;6.512;2023-05-07T08:57:44;15.70;99.90
60027;DHT22;45891;53.006;6.512;2023-05-07T09:00:11;15.80;99.90
60027;DHT22;45891;53.006;6.512;2023-05-07T09:02:37;16.00;99.90
60027;DHT22;45891;53.006;6.512;2023-05-07T09:05:04;16.20;99.90
60027;DHT22;45891;53.006;6.512;2023-05-07T09:07:30;16.60;99.90
60027;DHT22;45891;53.006;6.512;2023-05-07T09:09:57;16.80;99.90
60027;DHT22;45891;53.006;6.512;2023-05-07T09:12:23;16.80;99.90
60027;DHT22;45891;53.006;6.512;2023-05-07T09:14:49;17.00;99.90
60027;DHT22;45891;53.006;6.512;2023-05-07T09:17:16;17.10;99.90
60027;DHT22;45891;53.006;6.512;2023-05-07T09:19:44;17.40;99.90
60027;DHT22;45891;53.006;6.512;2023-05-07T09:22:11;17.60;99.90
60027;DHT22;45891;53.006;6.512;2023-05-07T09:24:37;18.60;99.90
60027;DHT22;45891;53.006;6.512;2023-05-07T09:27:07;18.50;99.90
60027;DHT22;45891;53.006;6.512;2023-05-07T09:29:35;18.60;99.90
60027;DHT22;45891;53.006;6.512;2023-05-07T09:32:07;18.40;99.90
60027;DHT22;45891;53.006;6.512;2023-05-07T09:34:34;18.70;99.90
60027;DHT22;45891;53.006;6.512;2023-05-07T09:37:04;18.80;99.90
60027;DHT22;45891;53.006;6.512;2023-05-07T09:39:44;19.30;99.90
60027;DHT22;45891;53.006;6.512;2023-05-07T09:42:11;19.40;99.90
60027;DHT22;45891;53.006;6.512;2023-05-07T09:44:38;19.50;99.90
60027;DHT22;45891;53.006;6.512;2023-05-07T09:47:05;20.00;99.90
60027;DHT22;45891;53.006;6.512;2023-05-07T09:49:34;19.80;99.90
60027;DHT22;45891;53.006;6.512;2023-05-07T09:52:03;19.90;99.90
60027;DHT22;45891;53.006;6.512;2023-05-07T09:54:32;20.20;99.90
60027;DHT22;45891;53.006;6.512;2023-05-07T09:57:01;20.40;99.90
60027;DHT22;45891;53.006;6.512;2023-05-07T09:59:30;20.40;99.90
60027;DHT22;45891;53.006;6.512;2023-05-07T10:01:58;20.80;99.90
60027;DHT22;45891;53.006;6.512;2023-05-07T10:04:25;20.70;99.90
60027;DHT22;45891;53.006;6.512;2023-05-07T10:06:52;21.00;99.90
60027;DHT22;45891;53.006;6.512;2023-05-07T10:09:20;21.40;99.90
60027;DHT22;45891;53.006;6.512;2023-05-07T10:11:48;21.90;99.90
60027;DHT22;45891;53.006;6.512;2023-05-07T10:14:15;22.60;99.90
60027;DHT22;45891;53.006;6.512;2023-05-07T10:16:42;22.80;99.90
60027;DHT22;45891;53.006;6.512;2023-05-07T10:19:09;22.20;99.90
60027;DHT22;45891;53.006;6.512;2023-05-07T10:21:41;22.20;99.90
60027;DHT22;45891;53.006;6.512;2023-05-07T10:24:13;22.30;99.90
60027;DHT22;45891;53.006;6.512;2023-05-07T10:26:48;22.10;99.20
60027;DHT22;45891;53.006;6.512;2023-05-07T10:29:32;21.90;99.90
60027;DHT22;45891;53.006;6.512;2023-05-07T10:32:15;22.00;99.40
60027;DHT22;45891;53.006;6.512;2023-05-07T10:34:48;22.20;99.90
60027;DHT22;45891;53.006;6.512;2023-05-07T10:37:15;22.50;99.90
60027;DHT22;45891;53.006;6.512;2023-05-07T10:39:42;23.00;99.90
60027;DHT22;45891;53.006;6.512;2023-05-07T10:42:12;23.10;99.40
60027;DHT22;45891;53.006;6.512;2023-05-07T10:44:39;23.00;99.80
60027;DHT22;45891;53.006;6.512;2023-05-07T10:54:45;23.60;99.40
60027;DHT22;45891;53.006;6.512;2023-05-07T10:57:36;23.80;98.90
60027;DHT22;45891;53.006;6.512;2023-05-07T11:05:31;24.00;97.20
60027;DHT22;45891;53.006;6.512;2023-05-07T11:08:04;24.40;97.90
60027;DHT22;45891;53.006;6.512;2023-05-07T11:10:56;24.70;97.60
60027;DHT22;45891;53.006;6.512;2023-05-07T11:13:44;25.10;97.00
60027;DHT22;45891;53.006;6.512;2023-05-07T11:16:24;25.30;97.00
60027;DHT22;45891;53.006;6.512;2023-05-07T11:18:55;24.90;96.20
60027;DHT22;45891;53.006;6.512;2023-05-07T11:21:37;25.10;97.00
60027;DHT22;45891;53.006;6.512;2023-05-07T11:24:05;25.30;96.20
60027;DHT22;45891;53.006;6.512;2023-05-07T11:29:21;26.00;96.40
60027;DHT22;45891;53.006;6.512;2023-05-07T11:31:52;26.20;96.60
60027;DHT22;45891;53.006;6.512;2023-05-07T11:34:23;26.00;96.10
60027;DHT22;45891;53.006;6.512;2023-05-07T11:36:50;26.10;96.60
60027;DHT22;45891;53.006;6.512;2023-05-07T11:39:26;26.20;95.90
60027;DHT22;45891;53.006;6.512;2023-05-07T11:41:52;26.30;96.10
60027;DHT22;45891;53.006;6.512;2023-05-07T11:44:18;26.10;95.90
60027;DHT22;45891;53.006;6.512;2023-05-07T11:46:44;26.30;96.00
60027;DHT22;45891;53.006;6.512;2023-05-07T11:49:11;26.30;95.90
60027;DHT22;45891;53.006;6.512;2023-05-07T11:51:37;26.00;95.70
60027;DHT22;45891;53.006;6.512;2023-05-07T11:54:04;25.70;95.30
60027;DHT22;45891;53.006;6.512;2023-05-07T11:56:35;25.70;95.20
60027;DHT22;45891;53.006;6.512;2023-05-07T11:59:04;25.60;95.60
60027;DHT22;45891;53.006;6.512;2023-05-07T12:01:30;25.70;95.00
60027;DHT22;45891;53.006;6.512;2023-05-07T12:03:56;25.50;95.40
60027;DHT22;45891;53.006;6.512;2023-05-07T12:06:22;25.70;94.80
60027;DHT22;45891;53.006;6.512;2023-05-07T12:08:48;25.70;95.60
60027;DHT22;45891;53.006;6.512;2023-05-07T12:11:25;25.70;94.60
60027;DHT22;45891;53.006;6.512;2023-05-07T12:13:51;25.40;94.60
60027;DHT22;45891;53.006;6.512;2023-05-07T12:16:19;25.10;95.10
60027;DHT22;45891;53.006;6.512;2023-05-07T12:18:46;25.20;95.60
60027;DHT22;45891;53.006;6.512;2023-05-07T12:21:12;25.30;95.60
60027;DHT22;45891;53.006;6.512;2023-05-07T12:23:40;25.00;95.00
60027;DHT22;45891;53.006;6.512;2023-05-07T12:26:06;25.10;95.50
60027;DHT22;45891;53.006;6.512;2023-05-07T12:28:37;25.10;95.40
60027;DHT22;45891;53.006;6.512;2023-05-07T12:31:04;25.70;95.80
60027;DHT22;45891;53.006;6.512;2023-05-07T12:33:31;26.20;96.00
60027;DHT22;45891;53.006;6.512;2023-05-07T12:35:58;26.80;95.40
60027;DHT22;45891;53.006;6.512;2023-05-07T12:38:35;27.30;95.40
60027;DHT22;45891;53.006;6.512;2023-05-07T12:41:01;27.20;94.60
60027;DHT22;45891;53.006;6.512;2023-05-07T12:43:28;26.90;94.00
60027;DHT22;45891;53.006;6.512;2023-05-07T12:45:57;26.80;94.50
60027;DHT22;45891;53.006;6.512;2023-05-07T12:48:24;26.60;94.60
60027;DHT22;45891;53.006;6.512;2023-05-07T12:50:57;26.50;93.90
60027;DHT22;45891;53.006;6.512;2023-05-07T12:53:24;26.20;94.30
60027;DHT22;45891;53.006;6.512;2023-05-07T12:55:52;25.60;94.40
60027;DHT22;45891;53.006;6.512;2023-05-07T12:58:26;26.00;94.80
60027;DHT22;45891;53.006;6.512;2023-05-07T13:00:54;26.60;94.00
60027;DHT22;45891;53.006;6.512;2023-05-07T13:03:27;26.40;94.60
60027;DHT22;45891;53.006;6.512;2023-05-07T13:05:55;26.50;94.10
60027;DHT22;45891;53.006;6.512;2023-05-07T13:08:29;26.60;94.40
60027;DHT22;45891;53.006;6.512;2023-05-07T13:10:58;26.50;94.20
60027;DHT22;45891;53.006;6.512;2023-05-07T13:13:24;25.90;94.50
60027;DHT22;45891;53.006;6.512;2023-05-07T13:15:51;26.00;94.40
60027;DHT22;45891;53.006;6.512;2023-05-07T13:18:17;26.10;94.60
60027;DHT22;45891;53.006;6.512;2023-05-07T13:20:43;26.30;94.20
60027;DHT22;45891;53.006;6.512;2023-05-07T13:23:09;26.10;94.10
60027;DHT22;45891;53.006;6.512;2023-05-07T13:25:36;26.10;94.30
60027;DHT22;45891;53.006;6.512;2023-05-07T13:28:02;26.20;94.60
60027;DHT22;45891;53.006;6.512;2023-05-07T13:30:28;26.20;94.40
60027;DHT22;45891;53.006;6.512;2023-05-07T13:32:55;26.30;94.70
60027;DHT22;45891;53.006;6.512;2023-05-07T13:35:21;26.60;94.70
60027;DHT22;45891;53.006;6.512;2023-05-07T13:37:47;26.70;94.10
60027;DHT22;45891;53.006;6.512;2023-05-07T13:40:15;26.70;94.00
60027;DHT22;45891;53.006;6.512;2023-05-07T13:42:41;26.80;93.80
60027;DHT22;45891;53.006;6.512;2023-05-07T13:45:07;26.20;94.00
60027;DHT22;45891;53.006;6.512;2023-05-07T13:47:34;25.90;94.30
60027;DHT22;45891;53.006;6.512;2023-05-07T13:50:00;26.10;94.20
60027;DHT22;45891;53.006;6.512;2023-05-07T13:52:27;26.50;94.40
60027;DHT22;45891;53.006;6.512;2023-05-07T13:54:53;27.20;93.40
60027;DHT22;45891;53.006;6.512;2023-05-07T13:57:19;27.80;94.10
60027;DHT22;45891;53.006;6.512;2023-05-07T13:59:45;28.20;92.70
60027;DHT22;45891;53.006;6.512;2023-05-07T14:02:11;28.10;93.00
60027;DHT22;45891;53.006;6.512;2023-05-07T14:04:38;28.10;93.30
60027;DHT22;45891;53.006;6.512;2023-05-07T14:07:04;28.20;93.40
60027;DHT22;45891;53.006;6.512;2023-05-07T14:09:31;28.10;92.80
60027;DHT22;45891;53.006;6.512;2023-05-07T14:11:57;27.50;92.90
60027;DHT22;45891;53.006;6.512;2023-05-07T14:14:23;27.20;92.90
60027;DHT22;45891;53.006;6.512;2023-05-07T14:16:49;26.90;93.10
60027;DHT22;45891;53.006;6.512;2023-05-07T14:19:15;26.60;93.40
60027;DHT22;45891;53.006;6.512;2023-05-07T14:21:41;27.00;93.50
60027;DHT22;45891;53.006;6.512;2023-05-07T14:24:08;27.10;93.50
60027;DHT22;45891;53.006;6.512;2023-05-07T14:26:34;26.80;93.70
60027;DHT22;45891;53.006;6.512;2023-05-07T14:29:01;26.40;93.40
60027;DHT22;45891;53.006;6.512;2023-05-07T14:31:27;26.30;93.80
60027;DHT22;45891;53.006;6.512;2023-05-07T14:33:53;26.10;93.70
60027;DHT22;45891;53.006;6.512;2023-05-07T14:36:19;25.60;93.20
60027;DHT22;45891;53.006;6.512;2023-05-07T14:38:52;25.50;93.40
60027;DHT22;45891;53.006;6.512;2023-05-07T14:41:21;25.60;94.20
60027;DHT22;45891;53.006;6.512;2023-05-07T14:43:47;26.00;94.10
60027;DHT22;45891;53.006;6.512;2023-05-07T14:46:17;26.10;94.20
60027;DHT22;45891;53.006;6.512;2023-05-07T14:48:46;26.10;93.80
60027;DHT22;45891;53.006;6.512;2023-05-07T14:51:12;26.30;93.90
60027;DHT22;45891;53.006;6.512;2023-05-07T14:53:40;26.40;94.30
60027;DHT22;45891;53.006;6.512;2023-05-07T14:56:06;26.60;94.10
60027;DHT22;45891;53.006;6.512;2023-05-07T14:58:33;26.20;93.70
60027;DHT22;45891;53.006;6.512;2023-05-07T15:01:00;25.80;93.70
60027;DHT22;45891;53.006;6.512;2023-05-07T15:03:26;25.90;94.10
60027;DHT22;45891;53.006;6.512;2023-05-07T15:05:52;26.00;94.20
60027;DHT22;45891;53.006;6.512;2023-05-07T15:08:18;26.00;94.30
60027;DHT22;45891;53.006;6.512;2023-05-07T15:10:45;25.90;93.90
60027;DHT22;45891;53.006;6.512;2023-05-07T15:13:12;25.50;93.70
60027;DHT22;45891;53.006;6.512;2023-05-07T15:15:38;25.00;93.70
60027;DHT22;45891;53.006;6.512;2023-05-07T15:18:05;24.20;94.30
60027;DHT22;45891;53.006;6.512;2023-05-07T15:20:31;24.10;94.60
60027;DHT22;45891;53.006;6.512;2023-05-07T15:22:57;24.30;94.80
60027;DHT22;45891;53.006;6.512;2023-05-07T15:25:24;24.60;94.40
60027;DHT22;45891;53.006;6.512;2023-05-07T15:27:50;24.60;94.30
60027;DHT22;45891;53.006;6.512;2023-05-07T15:30:17;24.90;94.50
60027;DHT22;45891;53.006;6.512;2023-05-07T15:32:45;25.40;94.30
60027;DHT22;45891;53.006;6.512;2023-05-07T15:35:12;25.40;94.00
60027;DHT22;45891;53.006;6.512;2023-05-07T15:37:38;26.00;94.00
60027;DHT22;45891;53.006;6.512;2023-05-07T15:40:04;26.50;93.30
60027;DHT22;45891;53.006;6.512;2023-05-07T15:42:33;26.20;93.50
60027;DHT22;45891;53.006;6.512;2023-05-07T15:44:59;25.80;93.90
60027;DHT22;45891;53.006;6.512;2023-05-07T15:47:27;26.30;93.60
60027;DHT22;45891;53.006;6.512;2023-05-07T15:49:53;26.50;93.90